createdAt,value
2023-04-24T00:04:15.367Z,2.63
2023-04-24T00:09:16.798Z,4.00
2023-04-24T00:14:17.819Z,3.30
2023-04-24T00:19:22.352Z,3.08
2023-04-24T00:24:23.223Z,3.25
2023-04-24T00:29:23.855Z,3.53
2023-04-24T00:34:25.801Z,4.20
2023-04-24T00:39:26.431Z,3.78
2023-04-24T00:44:27.303Z,3.55
2023-04-24T00:49:30.430Z,3.80
2023-04-24T00:54:31.695Z,3.58
2023-04-24T00:59:32.960Z,3.67
2023-04-24T01:04:35.173Z,3.65
2023-04-24T01:09:37.394Z,4.10
2023-04-24T01:14:38.413Z,3.28
2023-04-24T01:19:41.242Z,3.60
2023-04-24T01:24:44.652Z,3.85
2023-04-24T01:29:46.767Z,3.35
2023-04-24T01:34:48.743Z,3.85
2023-04-24T01:39:50.749Z,3.63
2023-04-24T01:44:53.376Z,3.65
2023-04-24T01:49:54.247Z,4.03
2023-04-24T01:54:56.813Z,4.05
2023-04-24T01:59:57.645Z,3.42
2023-04-24T02:04:58.529Z,4.70
2023-04-24T02:10:00.823Z,3.72
2023-04-24T02:15:01.680Z,3.75
2023-04-24T02:20:02.388Z,4.45
2023-04-24T02:25:04.578Z,4.20
2023-04-24T02:30:06.230Z,3.85
2023-04-24T02:35:07.956Z,3.83
2023-04-24T02:40:11.464Z,3.65
2023-04-24T02:45:12.618Z,4.32
2023-04-24T02:50:13.792Z,3.78
2023-04-24T02:55:16.832Z,4.38
2023-04-24T03:00:17.845Z,4.10
2023-04-24T03:05:18.541Z,3.95
2023-04-24T03:10:20.561Z,4.13
2023-04-24T03:15:22.958Z,4.32
2023-04-24T03:20:23.604Z,4.65
2023-04-24T03:25:26.141Z,4.68
2023-04-24T03:30:27.183Z,4.55
2023-04-24T03:35:32.513Z,5.60
2023-04-24T03:40:37.737Z,4.35
2023-04-24T03:45:46.136Z,4.10
2023-04-24T03:50:47.995Z,6.07
2023-04-24T03:55:50.771Z,4.30
2023-04-24T04:00:52.201Z,4.53
2023-04-24T04:06:20.396Z,4.38
2023-04-24T04:11:22.788Z,4.28
2023-04-24T04:16:23.504Z,3.50
2023-04-24T04:21:28.971Z,3.33
2023-04-24T04:26:41.593Z,2.20
2023-04-24T04:31:44.631Z,1.60
2023-04-24T04:36:47.645Z,2.72
2023-04-24T04:42:09.865Z,2.03
2023-04-24T04:47:14.845Z,1.60
2023-04-24T04:52:17.996Z,1.50
2023-04-24T04:57:22.489Z,1.55
2023-04-24T05:02:23.821Z,1.67
2023-04-24T05:07:24.659Z,1.50
2023-04-24T05:12:30.102Z,1.00
2023-04-24T05:17:32.057Z,1.73
2023-04-24T05:22:33.929Z,1.60
2023-04-24T05:27:36.310Z,1.10
2023-04-24T05:32:42.400Z,1.17
2023-04-24T05:37:43.081Z,1.23
2023-04-24T05:42:46.119Z,1.38
2023-04-24T05:47:46.823Z,1.63
2023-04-24T05:52:47.602Z,2.80
2023-04-24T05:58:02.732Z,2.08
2023-04-24T06:03:05.215Z,1.90
2023-04-24T06:08:06.437Z,2.45
2023-04-24T06:13:12.268Z,1.42
2023-04-24T06:18:23.958Z,2.25
2023-04-24T06:23:24.619Z,1.40
2023-04-24T06:28:26.673Z,1.13
2023-04-24T06:33:27.374Z,1.00
2023-04-24T06:38:28.162Z,1.00
2023-04-24T06:43:30.108Z,0.90
2023-04-24T06:48:30.837Z,0.85
2023-04-24T06:53:31.471Z,0.60
2023-04-24T06:58:33.913Z,1.08
2023-04-24T07:03:34.726Z,2.45
2023-04-24T07:08:36.813Z,0.90
2023-04-24T07:13:42.810Z,0.80
2023-04-24T07:18:43.544Z,0.95
2023-04-24T07:23:44.142Z,0.80
2023-04-24T07:28:46.478Z,0.90
2023-04-24T07:33:47.088Z,0.60
2023-04-24T07:38:48.010Z,0.60
2023-04-24T07:43:50.005Z,0.80
2023-04-24T07:49:01.825Z,0.63
2023-04-24T07:54:07.497Z,0.52
2023-04-24T07:59:10.773Z,0.70
2023-04-24T08:04:11.588Z,0.65
2023-04-24T08:09:12.496Z,0.77
2023-04-24T08:14:15.902Z,0.35
2023-04-24T08:19:16.639Z,1.30
2023-04-24T08:24:17.282Z,0.38
2023-04-24T08:29:19.716Z,0.88
2023-04-24T08:34:20.337Z,0.60
2023-04-24T08:39:21.139Z,0.80
2023-04-24T08:44:23.312Z,0.60
2023-04-24T08:49:26.280Z,0.50
2023-04-24T08:54:27.647Z,0.82
2023-04-24T08:59:30.136Z,0.88
2023-04-24T09:04:32.311Z,1.10
2023-04-24T09:09:35.185Z,0.80
2023-04-24T09:14:39.474Z,0.55
2023-04-24T09:19:40.509Z,0.57
2023-04-24T09:24:41.230Z,0.45
2023-04-24T09:29:55.630Z,0.40
2023-04-24T09:35:09.090Z,1.00
2023-04-24T09:40:15.049Z,1.40
2023-04-24T09:45:17.112Z,0.55
2023-04-24T09:50:20.203Z,0.50
2023-04-24T09:55:22.864Z,0.90
2023-04-24T10:00:31.362Z,0.40
2023-04-24T10:05:33.734Z,0.50
2023-04-24T10:10:35.817Z,0.40
2023-04-24T10:15:38.436Z,0.60
2023-04-24T10:20:41.432Z,0.70
2023-04-24T10:25:42.978Z,0.60
2023-04-24T10:30:45.585Z,0.35
2023-04-24T10:35:50.016Z,0.60
2023-04-24T10:40:50.832Z,0.60
2023-04-24T10:46:08.435Z,0.73
2023-04-24T10:51:14.035Z,0.52
2023-04-24T10:56:14.810Z,0.45
2023-04-24T11:01:29.231Z,0.57
2023-04-24T11:06:33.727Z,0.90
2023-04-24T11:11:35.550Z,0.40
2023-04-24T11:16:41.376Z,0.70
2023-04-24T11:21:44.129Z,0.43
2023-04-24T11:26:46.654Z,0.52
2023-04-24T11:31:50.786Z,0.50
2023-04-24T11:36:51.814Z,0.60
2023-04-24T11:41:52.824Z,0.50
2023-04-24T11:46:57.956Z,0.50
2023-04-24T11:52:00.961Z,0.32
2023-04-24T11:57:06.860Z,0.50
2023-04-24T12:02:08.895Z,0.40
2023-04-24T12:07:10.390Z,0.70
2023-04-24T12:12:13.107Z,0.57
2023-04-24T12:17:15.702Z,0.70
2023-04-24T12:22:16.556Z,0.57
2023-04-24T12:27:21.650Z,0.40
2023-04-24T12:32:23.862Z,0.57
2023-04-24T12:37:26.101Z,0.50
2023-04-24T12:42:28.371Z,0.50
2023-04-24T12:47:30.849Z,0.60
2023-04-24T12:52:32.294Z,1.08
2023-04-24T12:57:33.276Z,0.70
2023-04-24T13:02:36.045Z,0.80
2023-04-24T13:07:36.840Z,0.65
2023-04-24T13:12:37.721Z,1.05
2023-04-24T13:17:39.708Z,0.90
2023-04-24T13:22:40.379Z,0.60
2023-04-24T13:27:41.362Z,0.57
2023-04-24T13:32:43.374Z,1.00
2023-04-24T13:37:44.093Z,0.93
2023-04-24T13:42:45.157Z,0.90
2023-04-24T13:47:47.224Z,0.82
2023-04-24T13:52:47.897Z,0.68
2023-04-24T13:57:48.566Z,0.70
2023-04-24T14:02:50.676Z,1.10
2023-04-24T14:07:51.924Z,1.00
2023-04-24T14:12:54.075Z,0.70
2023-04-24T14:17:56.171Z,0.70
2023-04-24T14:22:59.430Z,0.82
2023-04-24T14:28:00.138Z,1.00
2023-04-24T14:33:02.277Z,0.77
2023-04-24T14:38:03.046Z,1.00
2023-04-24T14:43:03.791Z,0.77
2023-04-24T14:48:06.316Z,1.00
2023-04-24T14:53:07.016Z,0.90
2023-04-24T14:58:07.669Z,1.10
2023-04-24T15:03:09.827Z,0.75
2023-04-24T15:08:10.889Z,0.90
2023-04-24T15:13:11.624Z,0.70
2023-04-24T15:18:13.735Z,0.80
2023-04-24T15:23:14.461Z,0.60
2023-04-24T15:28:16.999Z,0.70
2023-04-24T15:33:19.042Z,0.70
2023-04-24T15:38:19.699Z,0.68
2023-04-24T15:43:20.364Z,0.60
2023-04-24T15:48:22.344Z,0.70
2023-04-24T15:53:23.311Z,1.20
2023-04-24T15:58:24.050Z,1.40
2023-04-24T16:03:26.258Z,1.15
2023-04-24T16:08:26.976Z,1.00
2023-04-24T16:13:29.130Z,1.08
2023-04-24T16:18:31.297Z,1.00
2023-04-24T16:23:31.932Z,0.70
2023-04-24T16:28:32.858Z,0.73
2023-04-24T16:33:34.833Z,0.65
2023-04-24T16:38:35.914Z,0.68
2023-04-24T16:43:36.628Z,0.70
2023-04-24T16:48:38.573Z,0.90
2023-04-24T16:53:39.247Z,0.90
2023-04-24T16:58:39.840Z,0.70
2023-04-24T17:03:42.015Z,0.90
2023-04-24T17:08:42.886Z,0.90
2023-04-24T17:13:43.652Z,0.75
2023-04-24T17:18:45.658Z,0.80
2023-04-24T17:23:46.364Z,0.70
2023-04-24T17:28:47.666Z,0.80
2023-04-24T17:33:49.817Z,0.75
2023-04-24T17:38:51.009Z,0.57
2023-04-24T17:43:51.773Z,0.80
2023-04-24T17:48:53.923Z,1.02
2023-04-24T17:53:55.106Z,0.63
2023-04-24T17:58:56.082Z,0.50
2023-04-24T18:03:58.393Z,0.50
2023-04-24T18:08:59.157Z,0.50
2023-04-24T18:13:59.829Z,0.40
2023-04-24T18:19:01.864Z,0.30
2023-04-24T18:24:02.480Z,0.68
2023-04-24T18:29:03.138Z,0.30
2023-04-24T18:34:05.620Z,0.30
2023-04-24T18:39:06.357Z,0.45
2023-04-24T18:44:06.983Z,0.30
2023-04-24T18:49:08.961Z,0.60
2023-04-24T18:54:09.635Z,0.80
2023-04-24T18:59:10.290Z,0.47
2023-04-24T19:04:12.634Z,0.80
2023-04-24T19:09:13.312Z,0.43
2023-04-24T19:14:14.454Z,0.47
2023-04-24T19:19:16.469Z,0.68
2023-04-24T19:24:18.977Z,0.63
2023-04-24T19:29:20.111Z,0.40
2023-04-24T19:34:22.181Z,0.60
2023-04-24T19:39:22.961Z,0.57
2023-04-24T19:44:23.585Z,1.27
2023-04-24T19:49:26.187Z,0.73
2023-04-24T19:54:27.219Z,0.90
2023-04-24T19:59:27.852Z,0.70
2023-04-24T20:04:29.958Z,0.82
2023-04-24T20:09:32.920Z,0.80
2023-04-24T20:14:33.664Z,0.73
2023-04-24T20:19:36.127Z,0.90
2023-04-24T20:24:36.988Z,0.90
2023-04-24T20:29:37.589Z,0.90
2023-04-24T20:34:40.218Z,1.08
2023-04-24T20:39:40.824Z,1.10
2023-04-24T20:44:42.129Z,1.13
2023-04-24T20:49:44.032Z,1.13
2023-04-24T20:54:44.789Z,1.60
2023-04-24T20:59:45.476Z,1.50
2023-04-24T21:04:47.842Z,1.35
2023-04-24T21:09:48.565Z,1.80
2023-04-24T21:14:51.070Z,1.80
2023-04-24T21:19:53.730Z,1.60
2023-04-24T21:24:54.525Z,2.30
2023-04-24T21:29:55.648Z,1.77
2023-04-24T21:34:59.360Z,1.92
2023-04-24T21:40:00.130Z,1.75
2023-04-24T21:45:00.864Z,2.30
2023-04-24T21:50:02.870Z,2.20
2023-04-24T21:55:03.563Z,2.00
2023-04-24T22:00:06.845Z,2.38
2023-04-24T22:05:15.374Z,2.08
2023-04-24T22:10:17.232Z,2.15
2023-04-24T22:15:17.906Z,2.20
2023-04-24T22:20:20.166Z,1.98
2023-04-24T22:25:20.994Z,1.73
2023-04-24T22:30:21.693Z,2.10
2023-04-24T22:35:23.608Z,2.20
2023-04-24T22:40:25.681Z,1.98
2023-04-24T22:45:26.497Z,1.90
2023-04-24T22:50:29.057Z,2.00
2023-04-24T22:55:29.666Z,2.17
2023-04-24T23:00:30.526Z,2.08
2023-04-24T23:05:32.615Z,2.05
2023-04-24T23:10:33.276Z,2.05
2023-04-24T23:15:34.721Z,2.13
2023-04-24T23:20:38.507Z,2.40
2023-04-24T23:25:39.378Z,2.42
2023-04-24T23:30:39.960Z,2.28
2023-04-24T23:35:41.964Z,2.60
2023-04-24T23:40:42.683Z,2.65
2023-04-24T23:45:43.347Z,2.13
2023-04-24T23:50:45.942Z,2.58
2023-04-24T23:55:46.583Z,2.50
